Latest Weather Observations for Lake Macquarie - Cooranbong

IDN60901

Issued at 11:41 pm EST Friday 26 August 2016 (issued every 10 minutes, with the page automatically refreshed every 10 minutes)

About weather observations | Map of Sydney area stations | Latest observations for Sydney area | Other Formats
Station Details ID: 061412 Name: LAKE MACQUARIE AWS Lat: -33.09 Lon: 151.46 Height: 6.0 m
Data from the previous 72 hours. | See also: Recent months at Lake Macquarie - Cooranbong
Date/Time
EST
Temp
°C
App
Temp
°C
Dew
Point
°C
Rel
Hum
%
Delta-T
°C
Wind Press
QNH
hPa
Press
MSL
hPa
Rain since
9am
mm
Dir  Spd
km/h
Gust
km/h
Spd
kts
Gust
kts
26/11:30pm 8.3 7.7 7.4 94 0.4 CALM 0 0 0 0 1021.6 1021.6 2.8
26/11:00pm 8.8 8.3 7.9 94 0.4 CALM 0 0 0 0 1021.4 1021.4 2.8
26/10:30pm 9.3 8.9 8.4 94 0.4 CALM 0 0 0 0 1021.3 1021.3 2.8
26/10:00pm 9.7 9.4 8.6 93 0.5 CALM 0 0 0 0 1021.4 1021.4 2.4
26/09:30pm 9.9 8.9 8.8 93 0.5 W 4 7 2 4 1021.2 1021.2 2.2
26/09:00pm 9.8 9.5 8.7 93 0.5 CALM 0 0 0 0 1021.4 1021.4 1.6
26/08:30pm 10.1 9.1 9.0 93 0.5 WNW 4 6 2 3 1021.5 1021.5 1.4
26/08:00pm 9.9 8.9 8.8 93 0.5 E 4 7 2 4 1021.4 1021.4 1.4
26/07:30pm 9.9 8.8 8.5 91 0.7 N 4 6 2 3 1020.9 1020.9 1.2
26/07:00pm 10.2 9.1 8.6 90 0.8 NW 4 6 2 3 1020.7 1020.7 1.2
26/06:30pm 10.5 9.4 8.6 88 0.9 NW 4 6 2 3 1020.3 1020.3 1.2
26/06:00pm 11.1 10.0 8.5 84 1.3 NNE 4 9 2 5 1020.0 1020.0 0.4
26/05:30pm 11.4 10.3 8.4 82 1.5 NNW 4 9 2 5 1019.4 1019.4 0.0
26/05:00pm 11.7 10.5 8.0 78 1.8 E 4 7 2 4 1019.1 1019.1 0.0
26/04:30pm 12.4 8.1 6.9 69 2.6 ESE 19 28 10 15 1019.0 1019.0 0.0
26/04:00pm 13.2 12.0 6.3 63 3.3 ESE 2 6 1 3 1018.2 1018.2 0.0
26/03:30pm 13.5 12.6 5.9 60 3.6 CALM 0 0 0 0 1017.9 1017.9 0.0
26/03:00pm 13.9 12.8 5.3 56 4.0 CALM 0 2 0 1 1017.7 1017.7 0.0
26/02:30pm 14.0 11.4 4.3 52 4.5 SW 7 19 4 10 1017.9 1017.9 0.0
26/02:00pm 15.0 11.6 4.1 48 5.0 SW 11 22 6 12 1017.9 1017.9 0.0
26/01:30pm 15.7 11.8 3.5 44 5.6 WSW 13 26 7 14 1017.7 1017.7 0.0
26/01:00pm 15.1 13.2 5.0 51 4.7 SSW 4 13 2 7 1018.0 1018.0 0.0
26/12:30pm 15.2 12.1 3.7 46 5.3 SW 9 22 5 12 1018.2 1018.2 0.0
26/12:00pm 14.7 12.1 4.4 50 4.8 S 7 17 4 9 1018.7 1018.7 0.0
26/11:30am 13.8 10.4 3.9 51 4.5 WSW 11 24 6 13 1019.1 1019.1 0.0
26/11:00am 14.4 11.6 5.2 54 4.3 SSW 9 15 5 8 1019.0 1019.0 0.0
26/10:30am 14.0 11.5 4.9 54 4.2 SW 7 17 4 9 1018.9 1018.9 0.0
26/10:00am 12.9 9.6 4.8 58 3.7 SW 11 20 6 11 1018.8 1018.8 0.0
26/09:30am 12.4 9.1 4.6 59 3.6 SW 11 19 6 10 1018.9 1018.9 0.0
26/09:00am 11.6 9.1 4.8 63 3.1 SW 7 20 4 11 1019.1 1019.1 2.2
26/08:30am 10.2 7.7 5.0 70 2.3 SW 7 19 4 10 1019.0 1019.0 2.2
26/08:00am 7.8 5.6 6.3 90 0.7 SW 7 17 4 9 1018.9 1018.9 2.2
26/07:30am 4.9 3.7 4.5 97 0.2 CALM 0 2 0 1 1018.5 1018.5 2.2
26/07:00am 2.8 1.2 2.2 96 0.2 CALM 0 0 0 0 1018.2 1018.2 2.2
26/06:30am 3.0 1.4 2.4 96 0.2 CALM 0 0 0 0 1017.7 1017.7 2.2
26/06:00am 3.1 1.5 2.4 95 0.3 CALM 0 0 0 0 1017.3 1017.3 2.2
26/05:30am 3.5 2.0 2.8 95 0.3 CALM 0 0 0 0 1017.0 1017.0 2.2
26/05:00am 3.8 2.3 3.1 95 0.3 CALM 0 0 0 0 1016.9 1016.9 2.2
26/04:30am 4.4 3.0 3.7 95 0.3 CALM 0 0 0 0 1016.6 1016.6 2.2
26/04:00am 5.0 3.4 4.3 95 0.3 WNW 2 4 1 2 1016.3 1016.3 2.2
26/03:30am 5.3 4.1 4.7 96 0.3 CALM 0 0 0 0 1016.3 1016.3 2.2
26/03:00am 6.0 5.0 5.4 96 0.3 CALM 0 0 0 0 1016.4 1016.4 2.2
26/02:30am 6.2 4.8 5.6 96 0.3 NNW 2 4 1 2 1016.3 1016.3 2.2
26/02:00am 6.2 5.2 5.6 96 0.3 CALM 0 0 0 0 1016.1 1016.1 2.2
26/01:30am 6.4 5.4 5.8 96 0.3 CALM 0 0 0 0 1016.0 1016.0 2.2
26/01:00am 6.2 5.2 5.6 96 0.3 CALM 0 0 0 0 1015.8 1015.8 2.2
26/12:30am 6.1 5.1 5.5 96 0.3 CALM 0 0 0 0 1015.7 1015.7 2.2
26/12:00am 6.3 5.3 5.7 96 0.3 CALM 0 0 0 0 1015.7 1015.7 2.2
 
Date/Time
EST
Temp
°C
App
Temp
°C
Dew
Point
°C
Rel
Hum
%
Delta-T
°C
Wind Press
QNH
hPa
Press
MSL
hPa
Rain since
9am
mm
Dir  Spd
km/h
Gust
km/h
Spd
kts
Gust
kts
25/11:30pm 6.1 5.1 5.5 96 0.3 CALM 0 0 0 0 1015.5 1015.5 2.2
25/11:00pm 6.0 4.6 5.3 95 0.3 N 2 2 1 1 1015.3 1015.3 2.2
25/10:30pm 6.6 4.5 5.9 95 0.3 N 6 7 3 4 1015.2 1015.2 2.2
25/10:00pm 6.8 5.9 5.9 94 0.4 CALM 0 4 0 2 1015.1 1015.1 2.2
25/09:30pm 7.7 7.0 6.8 94 0.4 CALM 0 2 0 1 1014.9 1014.9 2.2
25/09:00pm 8.5 7.9 7.4 93 0.5 CALM 0 0 0 0 1014.7 1014.7 2.2
25/08:30pm 9.1 8.6 8.0 93 0.5 CALM 0 0 0 0 1014.7 1014.7 2.2
25/08:00pm 9.9 9.6 8.8 93 0.5 CALM 0 2 0 1 1014.4 1014.4 2.2
25/07:30pm 10.1 9.8 8.7 91 0.7 CALM 0 0 0 0 1014.4 1014.4 2.2
25/07:00pm 10.9 9.9 8.8 87 1.0 W 4 6 2 3 1014.4 1014.4 2.2
25/06:30pm 11.2 10.4 9.5 89 0.9 S 4 6 2 3 1013.8 1013.8 2.2
25/06:00pm 11.7 11.3 9.9 89 0.9 SW 2 6 1 3 1013.3 1013.3 1.6
25/05:30pm 12.0 10.9 10.1 88 1.0 NNE 6 7 3 4 1012.3 1012.3 1.6
25/05:00pm 12.4 11.8 10.3 87 1.1 E 4 4 2 2 1012.1 1012.1 1.4
25/04:30pm 13.0 12.5 9.3 78 1.9 WSW 2 7 1 4 1012.0 1012.0 0.6
25/04:00pm 13.8 13.3 9.5 75 2.2 N 2 4 1 2 1011.5 1011.5 0.6
25/03:30pm 13.4 12.7 10.2 81 1.7 N 4 6 2 3 1011.1 1011.1 0.6
25/03:00pm 13.9 12.1 7.2 64 3.3 SW 6 9 3 5 1011.2 1011.2 0.4
25/02:30pm 15.6 13.3 4.6 48 5.1 SW 6 9 3 5 1010.7 1010.7 0.0
25/02:00pm 16.2 14.0 3.3 42 5.9 WSW 4 7 2 4 1010.4 1010.4 0.0
25/01:30pm 16.7 13.5 3.1 40 6.2 WSW 9 17 5 9 1010.3 1010.3 0.0
25/01:00pm 17.0 13.8 3.0 39 6.4 SSW 9 19 5 10 1010.3 1010.3 0.0
25/12:30pm 16.3 12.5 2.0 38 6.4 SW 11 22 6 12 1010.6 1010.6 0.0
25/12:00pm 15.7 12.1 2.8 42 5.8 WSW 11 22 6 12 1010.8 1010.8 0.0
25/11:30am 15.8 12.1 4.5 47 5.3 WSW 13 26 7 14 1010.8 1010.8 0.0
25/11:00am 14.8 9.9 3.9 48 5.0 W 19 37 10 20 1010.6 1010.6 0.0
25/10:30am 14.4 11.5 6.3 58 3.9 WSW 11 22 6 12 1010.6 1010.6 0.0
25/10:00am 12.3 9.6 5.7 64 3.1 WSW 9 22 5 12 1010.9 1010.9 0.0
25/09:30am 12.8 9.7 5.7 62 3.3 SW 11 24 6 13 1010.7 1010.7 0.0
25/09:00am 12.4 9.0 6.0 65 3.0 WSW 13 28 7 15 1010.5 1010.5 4.6
25/08:30am 11.6 8.0 5.0 64 3.0 WSW 13 28 7 15 1010.3 1010.3 4.6
25/08:00am 11.5 8.4 5.4 66 2.8 WSW 11 28 6 15 1010.0 1010.0 4.6
25/07:30am 10.7 7.4 4.8 67 2.7 WSW 11 22 6 12 1009.9 1009.9 4.6
25/07:00am 10.3 7.1 5.1 70 2.4 WSW 11 22 6 12 1009.7 1009.7 4.6
25/06:30am 10.0 7.2 5.2 72 2.2 WSW 9 15 5 8 1009.3 1009.3 4.6
25/06:00am 10.1 6.9 5.3 72 2.2 WSW 11 24 6 13 1009.0 1009.0 4.6
25/05:30am 10.0 7.3 5.4 73 2.1 WSW 9 22 5 12 1008.6 1008.6 4.6
25/05:00am 10.0 6.9 5.4 73 2.1 WSW 11 26 6 14 1008.2 1008.2 4.6
25/04:30am 10.2 7.6 6.0 75 1.9 SW 9 22 5 12 1007.8 1007.8 4.6
25/04:00am 10.1 7.5 6.3 77 1.8 WSW 9 20 5 11 1007.7 1007.7 4.6
25/03:30am 10.0 6.3 6.3 78 1.7 WSW 15 24 8 13 1007.5 1007.5 4.6
25/03:00am 9.7 6.8 6.4 80 1.5 W 11 19 6 10 1007.0 1007.0 4.6
25/02:30am 9.5 7.0 6.4 81 1.4 WSW 9 20 5 11 1007.0 1007.0 4.6
25/02:00am 9.6 7.1 6.7 82 1.4 WSW 9 20 5 11 1007.1 1007.1 4.6
25/01:30am 9.7 7.3 6.8 82 1.4 WSW 9 17 5 9 1006.9 1006.9 4.6
25/01:00am 10.4 8.0 7.1 80 1.6 WSW 9 15 5 8 1007.3 1007.3 4.6
25/12:30am 10.3 7.5 7.0 80 1.6 WSW 11 20 6 11 1007.3 1007.3 4.6
25/12:00am 10.0 7.2 7.1 82 1.4 WSW 11 28 6 15 1007.0 1007.0 4.6
 
Date/Time
EST
Temp
°C
App
Temp
°C
Dew
Point
°C
Rel
Hum
%
Delta-T
°C
Wind Press
QNH
hPa
Press
MSL
hPa
Rain since
9am
mm
Dir  Spd
km/h
Gust
km/h
Spd
kts
Gust
kts
24/11:30pm 10.0 6.9 7.3 83 1.3 W 13 22 7 12 1006.7 1006.7 4.6
24/11:00pm 10.5 7.9 7.9 84 1.3 WSW 11 30 6 16 1006.5 1006.5 4.6
24/10:30pm 11.1 8.7 8.8 86 1.1 WSW 11 28 6 15 1006.8 1006.8 4.6
24/10:00pm 11.5 9.4 9.8 89 0.9 WSW 11 20 6 11 1006.7 1006.7 4.6
24/09:30pm 12.2 10.9 9.9 86 1.2 SW 7 15 4 8 1006.5 1006.5 4.4
24/09:00pm 12.5 11.0 10.4 87 1.1 WSW 9 19 5 10 1006.3 1006.3 4.4
24/08:30pm 12.6 11.7 11.2 91 0.7 NW 7 11 4 6 1006.6 1006.6 4.2
24/08:00pm 12.7 13.3 11.9 95 0.4 CALM 0 4 0 2 1006.0 1006.0 4.2
24/07:30pm 12.8 13.4 12.0 95 0.4 CALM 0 4 0 2 1006.0 1006.0 4.2
24/07:00pm 13.0 13.7 12.1 94 0.5 CALM 0 0 0 0 1005.4 1005.4 3.8
24/06:30pm 13.3 14.1 12.4 94 0.5 CALM 0 0 0 0 1005.9 1005.9 3.4
24/06:00pm 13.4 13.7 12.3 93 0.6 NNW 2 6 1 3 1006.1 1006.1 1.4
24/05:30pm 13.6 14.3 12.2 91 0.8 CALM 0 0 0 0 1005.9 1005.9 1.2
24/05:00pm 13.7 14.4 12.3 91 0.8 CALM 0 0 0 0 1006.2 1006.2 1.2
24/04:30pm 13.7 14.1 12.4 92 0.7 SW 2 6 1 3 1006.5 1006.5 1.2
24/04:00pm 13.8 13.8 12.4 91 0.8 SW 4 7 2 4 1006.7 1006.7 1.2
24/03:30pm 14.2 14.6 12.6 90 0.9 SW 2 7 1 4 1006.7 1006.7 1.2
24/03:00pm 14.4 14.1 12.6 89 1.0 SW 6 9 3 5 1007.0 1007.0 1.2
24/02:30pm 14.4 14.5 12.8 90 0.9 SSW 4 9 2 5 1007.6 1007.6 1.2
24/02:00pm 14.5 15.3 12.7 89 1.0 CALM 0 4 0 2 1008.0 1008.0 1.2
24/01:30pm 14.6 14.9 12.3 86 1.3 SSW 2 4 1 2 1008.9 1008.9 1.0
24/01:00pm 15.2 15.3 12.7 85 1.4 SSW 4 6 2 3 1008.1 1008.1 1.0
24/12:30pm 14.7 14.8 12.6 87 1.1 WSW 4 7 2 4 1009.0 1009.0 1.0
24/12:00pm 14.8 14.8 12.5 86 1.3 W 4 7 2 4 1009.6 1009.6 1.0
24/11:30am 14.8 14.9 12.8 88 1.1 SW 4 6 2 3 1010.1 1010.1 1.0
24/11:00am 14.5 14.8 13.4 93 0.6 SSW 4 7 2 4 1010.9 1010.9 1.0
24/10:30am 13.3 13.6 12.2 93 0.6 WNW 2 6 1 3 1012.4 1012.4 0.8
24/10:00am 13.0 13.7 12.1 94 0.5 CALM 0 0 0 0 1012.9 1012.9 0.6
24/09:30am 12.9 13.1 11.8 93 0.6 N 2 6 1 3 1012.9 1012.9 0.4
24/09:00am 12.7 12.4 11.6 93 0.6 WSW 4 6 2 3 1012.5 1012.5 3.6
24/08:30am 12.6 12.3 11.3 92 0.7 WSW 4 7 2 4 1012.8 1012.8 2.0
24/08:00am 12.6 12.6 11.0 90 0.8 S 2 6 1 3 1012.8 1012.8 0.4
24/07:30am 12.7 12.2 10.8 88 1.0 WSW 4 6 2 3 1013.1 1013.1 0.0
24/07:00am 12.7 12.4 10.2 85 1.3 WSW 2 4 1 2 1012.9 1012.9 0.0
24/06:30am 12.5 11.4 9.9 84 1.3 WSW 6 9 3 5 1013.7 1013.7 0.0
24/06:00am 12.4 11.6 9.8 84 1.3 SW 4 6 2 3 1013.2 1013.2 0.0
24/05:30am 12.4 11.6 9.8 84 1.3 WSW 4 6 2 3 1012.5 1012.5 0.0
24/05:00am 12.2 11.8 9.6 84 1.3 WSW 2 6 1 3 1013.3 1013.3 0.0
24/04:30am 12.4 11.6 9.6 83 1.4 SW 4 6 2 3 1013.3 1013.3 0.0
24/04:00am 12.4 11.6 9.6 83 1.4 WSW 4 6 2 3 1013.4 1013.4 0.0
24/03:30am 12.2 11.3 9.4 83 1.4 WSW 4 6 2 3 1013.6 1013.6 0.0
24/03:00am 11.9 11.5 9.6 86 1.2 SW 2 6 1 3 1014.4 1014.4 0.0
24/02:30am 11.2 11.1 9.5 89 0.9 CALM 0 0 0 0 1014.2 1014.2 0.0
24/02:00am 11.1 10.7 9.7 91 0.7 WSW 2 6 1 3 1014.2 1014.2 0.0
24/01:30am 10.2 10.0 9.0 92 0.6 CALM 0 6 0 3 1014.4 1014.4 0.0
24/01:00am 10.2 10.0 9.0 92 0.6 CALM 0 0 0 0 1014.4 1014.4 0.0
24/12:30am 10.2 10.0 9.0 92 0.6 CALM 0 2 0 1 1014.8 1014.8 0.0
24/12:00am 10.1 9.8 8.7 91 0.7 CALM 0 0 0 0 1015.3 1015.3 0.0

Latest Capital City Observations: Canberra | Sydney | Melbourne | Brisbane | Adelaide | Perth | Hobart | Darwin

Other Formats:

Comma delimited format used in spreadsheet applications
http://www.bom.gov.au/fwo/IDN60901/IDN60901.95767.axf

JavaScript Object Notation format (JSON) in row-major order
http://www.bom.gov.au/fwo/IDN60901/IDN60901.95767.json